sensor_id;sensor_type;location;lat;lon;timestamp;P1;durP1;ratioP1;P2;durP2;ratioP2
34405;SDS011;20658;45.630;8.886;2023-02-11T00:02:09;68.13;;;33.63;;
34405;SDS011;20658;45.630;8.886;2023-02-11T00:04:43;57.25;;;34.08;;
34405;SDS011;20658;45.630;8.886;2023-02-11T00:07:16;68.88;;;34.50;;
34405;SDS011;20658;45.630;8.886;2023-02-11T00:09:49;64.82;;;33.83;;
34405;SDS011;20658;45.630;8.886;2023-02-11T00:12:23;60.67;;;33.80;;
34405;SDS011;20658;45.630;8.886;2023-02-11T00:14:53;67.10;;;34.58;;
34405;SDS011;20658;45.630;8.886;2023-02-11T00:17:26;68.30;;;33.05;;
34405;SDS011;20658;45.630;8.886;2023-02-11T00:19:59;56.72;;;32.85;;
34405;SDS011;20658;45.630;8.886;2023-02-11T00:22:33;63.75;;;32.63;;
34405;SDS011;20658;45.630;8.886;2023-02-11T00:25:06;58.00;;;32.22;;
34405;SDS011;20658;45.630;8.886;2023-02-11T00:27:39;59.15;;;31.30;;
34405;SDS011;20658;45.630;8.886;2023-02-11T00:30:14;58.95;;;31.33;;
34405;SDS011;20658;45.630;8.886;2023-02-11T00:32:47;59.67;;;31.05;;
34405;SDS011;20658;45.630;8.886;2023-02-11T00:35:24;54.13;;;29.65;;
34405;SDS011;20658;45.630;8.886;2023-02-11T00:37:59;59.13;;;30.98;;
34405;SDS011;20658;45.630;8.886;2023-02-11T00:40:32;60.35;;;31.55;;
34405;SDS011;20658;45.630;8.886;2023-02-11T00:43:05;62.25;;;32.45;;
34405;SDS011;20658;45.630;8.886;2023-02-11T00:45:40;61.10;;;30.85;;
34405;SDS011;20658;45.630;8.886;2023-02-11T00:48:13;58.95;;;30.70;;
34405;SDS011;20658;45.630;8.886;2023-02-11T00:50:46;58.78;;;29.33;;
34405;SDS011;20658;45.630;8.886;2023-02-11T00:53:20;52.72;;;28.33;;
34405;SDS011;20658;45.630;8.886;2023-02-11T00:55:53;54.53;;;29.33;;
34405;SDS011;20658;45.630;8.886;2023-02-11T00:58:26;55.38;;;28.60;;
34405;SDS011;20658;45.630;8.886;2023-02-11T01:01:01;56.65;;;30.13;;
34405;SDS011;20658;45.630;8.886;2023-02-11T01:03:35;58.60;;;32.40;;
34405;SDS011;20658;45.630;8.886;2023-02-11T01:06:08;59.80;;;33.00;;
34405;SDS011;20658;45.630;8.886;2023-02-11T01:08:42;58.08;;;31.98;;
34405;SDS011;20658;45.630;8.886;2023-02-11T01:11:17;53.92;;;30.50;;
34405;SDS011;20658;45.630;8.886;2023-02-11T01:13:52;57.30;;;29.38;;
34405;SDS011;20658;45.630;8.886;2023-02-11T01:16:26;52.95;;;28.27;;
34405;SDS011;20658;45.630;8.886;2023-02-11T01:19:00;59.05;;;30.65;;
34405;SDS011;20658;45.630;8.886;2023-02-11T01:21:33;55.90;;;30.13;;
34405;SDS011;20658;45.630;8.886;2023-02-11T01:24:06;54.80;;;28.58;;
34405;SDS011;20658;45.630;8.886;2023-02-11T01:26:42;51.38;;;28.27;;
34405;SDS011;20658;45.630;8.886;2023-02-11T01:29:16;53.70;;;30.60;;
34405;SDS011;20658;45.630;8.886;2023-02-11T01:31:54;62.38;;;28.60;;
34405;SDS011;20658;45.630;8.886;2023-02-11T01:34:27;52.20;;;29.20;;
34405;SDS011;20658;45.630;8.886;2023-02-11T01:37:01;55.92;;;29.80;;
34405;SDS011;20658;45.630;8.886;2023-02-11T01:39:34;55.42;;;28.50;;
34405;SDS011;20658;45.630;8.886;2023-02-11T01:42:08;54.80;;;29.70;;
34405;SDS011;20658;45.630;8.886;2023-02-11T01:44:42;59.10;;;30.40;;
34405;SDS011;20658;45.630;8.886;2023-02-11T01:47:17;56.78;;;29.38;;
34405;SDS011;20658;45.630;8.886;2023-02-11T01:49:51;58.25;;;32.40;;
34405;SDS011;20658;45.630;8.886;2023-02-11T01:52:30;51.75;;;28.25;;
34405;SDS011;20658;45.630;8.886;2023-02-11T01:55:08;55.80;;;28.63;;
34405;SDS011;20658;45.630;8.886;2023-02-11T02:00:43;57.00;;;28.55;;
34405;SDS011;20658;45.630;8.886;2023-02-11T02:03:20;53.53;;;27.85;;
34405;SDS011;20658;45.630;8.886;2023-02-11T02:05:56;51.03;;;27.00;;
34405;SDS011;20658;45.630;8.886;2023-02-11T02:08:39;50.03;;;26.75;;
34405;SDS011;20658;45.630;8.886;2023-02-11T02:11:16;49.53;;;26.58;;
34405;SDS011;20658;45.630;8.886;2023-02-11T02:13:49;49.75;;;27.38;;
34405;SDS011;20658;45.630;8.886;2023-02-11T02:16:23;49.83;;;26.80;;
34405;SDS011;20658;45.630;8.886;2023-02-11T02:19:13;53.38;;;27.98;;
34405;SDS011;20658;45.630;8.886;2023-02-11T02:25:59;52.30;;;28.13;;
34405;SDS011;20658;45.630;8.886;2023-02-11T02:29:16;54.88;;;29.33;;
34405;SDS011;20658;45.630;8.886;2023-02-11T02:35:54;50.55;;;28.17;;
34405;SDS011;20658;45.630;8.886;2023-02-11T02:38:39;58.90;;;29.85;;
34405;SDS011;20658;45.630;8.886;2023-02-11T02:41:21;51.38;;;28.20;;
34405;SDS011;20658;45.630;8.886;2023-02-11T02:44:00;53.47;;;29.33;;
34405;SDS011;20658;45.630;8.886;2023-02-11T02:46:34;57.28;;;29.05;;
34405;SDS011;20658;45.630;8.886;2023-02-11T02:49:11;57.67;;;30.45;;
34405;SDS011;20658;45.630;8.886;2023-02-11T02:51:51;49.60;;;28.42;;
34405;SDS011;20658;45.630;8.886;2023-02-11T03:01:34;48.67;;;25.83;;
34405;SDS011;20658;45.630;8.886;2023-02-11T03:04:25;51.40;;;26.30;;
34405;SDS011;20658;45.630;8.886;2023-02-11T03:07:08;49.13;;;25.65;;
34405;SDS011;20658;45.630;8.886;2023-02-11T03:09:52;52.25;;;26.83;;
34405;SDS011;20658;45.630;8.886;2023-02-11T03:12:30;48.90;;;26.20;;
34405;SDS011;20658;45.630;8.886;2023-02-11T03:15:06;49.92;;;28.25;;
34405;SDS011;20658;45.630;8.886;2023-02-11T03:17:43;53.05;;;26.63;;
34405;SDS011;20658;45.630;8.886;2023-02-11T03:20:21;50.42;;;26.30;;
34405;SDS011;20658;45.630;8.886;2023-02-11T03:22:55;46.17;;;25.70;;
34405;SDS011;20658;45.630;8.886;2023-02-11T03:25:36;52.42;;;27.25;;
34405;SDS011;20658;45.630;8.886;2023-02-11T03:28:16;46.95;;;26.02;;
34405;SDS011;20658;45.630;8.886;2023-02-11T03:31:01;45.05;;;25.10;;
34405;SDS011;20658;45.630;8.886;2023-02-11T03:33:45;51.63;;;26.85;;
34405;SDS011;20658;45.630;8.886;2023-02-11T03:36:27;47.83;;;26.20;;
34405;SDS011;20658;45.630;8.886;2023-02-11T03:39:11;47.15;;;26.70;;
34405;SDS011;20658;45.630;8.886;2023-02-11T03:41:51;46.28;;;26.00;;
34405;SDS011;20658;45.630;8.886;2023-02-11T03:44:30;48.03;;;23.92;;
34405;SDS011;20658;45.630;8.886;2023-02-11T03:47:09;46.40;;;25.88;;
34405;SDS011;20658;45.630;8.886;2023-02-11T03:49:46;48.85;;;24.58;;
34405;SDS011;20658;45.630;8.886;2023-02-11T03:52:25;45.33;;;24.85;;
34405;SDS011;20658;45.630;8.886;2023-02-11T03:54:59;44.97;;;24.02;;
34405;SDS011;20658;45.630;8.886;2023-02-11T03:57:38;43.25;;;22.70;;
34405;SDS011;20658;45.630;8.886;2023-02-11T04:00:12;46.10;;;25.60;;
34405;SDS011;20658;45.630;8.886;2023-02-11T04:02:47;43.50;;;23.23;;
34405;SDS011;20658;45.630;8.886;2023-02-11T04:05:20;45.75;;;22.88;;
34405;SDS011;20658;45.630;8.886;2023-02-11T04:07:55;46.17;;;23.05;;
34405;SDS011;20658;45.630;8.886;2023-02-11T04:10:28;46.88;;;23.65;;
34405;SDS011;20658;45.630;8.886;2023-02-11T04:13:02;45.83;;;24.13;;
34405;SDS011;20658;45.630;8.886;2023-02-11T04:15:35;42.97;;;22.75;;
34405;SDS011;20658;45.630;8.886;2023-02-11T04:18:08;46.42;;;23.10;;
34405;SDS011;20658;45.630;8.886;2023-02-11T04:20:42;43.45;;;22.50;;
34405;SDS011;20658;45.630;8.886;2023-02-11T04:23:16;50.08;;;32.58;;
34405;SDS011;20658;45.630;8.886;2023-02-11T04:25:49;46.58;;;26.55;;
34405;SDS011;20658;45.630;8.886;2023-02-11T04:28:23;50.20;;;28.25;;
34405;SDS011;20658;45.630;8.886;2023-02-11T04:30:57;45.08;;;23.45;;
34405;SDS011;20658;45.630;8.886;2023-02-11T04:33:30;44.25;;;24.85;;
34405;SDS011;20658;45.630;8.886;2023-02-11T04:36:04;48.72;;;24.70;;
34405;SDS011;20658;45.630;8.886;2023-02-11T04:38:39;47.40;;;27.42;;
34405;SDS011;20658;45.630;8.886;2023-02-11T04:41:12;43.70;;;23.63;;
34405;SDS011;20658;45.630;8.886;2023-02-11T04:43:46;45.33;;;27.55;;
34405;SDS011;20658;45.630;8.886;2023-02-11T04:46:19;43.33;;;23.38;;
34405;SDS011;20658;45.630;8.886;2023-02-11T04:48:53;46.78;;;22.58;;
34405;SDS011;20658;45.630;8.886;2023-02-11T04:51:26;61.53;;;45.65;;
34405;SDS011;20658;45.630;8.886;2023-02-11T04:54:01;62.53;;;51.88;;
34405;SDS011;20658;45.630;8.886;2023-02-11T04:56:34;43.15;;;23.95;;
34405;SDS011;20658;45.630;8.886;2023-02-11T04:59:07;48.63;;;29.60;;
34405;SDS011;20658;45.630;8.886;2023-02-11T05:01:42;45.15;;;22.42;;
34405;SDS011;20658;45.630;8.886;2023-02-11T05:04:15;44.30;;;25.33;;
34405;SDS011;20658;45.630;8.886;2023-02-11T05:06:48;50.20;;;27.77;;
34405;SDS011;20658;45.630;8.886;2023-02-11T05:09:23;39.67;;;21.50;;
34405;SDS011;20658;45.630;8.886;2023-02-11T05:11:56;42.05;;;21.70;;
34405;SDS011;20658;45.630;8.886;2023-02-11T05:14:29;46.53;;;25.95;;
34405;SDS011;20658;45.630;8.886;2023-02-11T05:17:03;39.90;;;21.92;;
34405;SDS011;20658;45.630;8.886;2023-02-11T05:19:36;39.25;;;21.83;;
34405;SDS011;20658;45.630;8.886;2023-02-11T05:22:10;37.90;;;19.13;;
34405;SDS011;20658;45.630;8.886;2023-02-11T05:24:44;35.20;;;18.83;;
34405;SDS011;20658;45.630;8.886;2023-02-11T05:27:18;39.28;;;18.85;;
34405;SDS011;20658;45.630;8.886;2023-02-11T05:29:51;42.75;;;20.15;;
34405;SDS011;20658;45.630;8.886;2023-02-11T05:32:24;43.55;;;21.00;;
34405;SDS011;20658;45.630;8.886;2023-02-11T05:34:57;37.58;;;19.25;;
34405;SDS011;20658;45.630;8.886;2023-02-11T05:37:31;38.38;;;18.92;;
34405;SDS011;20658;45.630;8.886;2023-02-11T05:40:06;40.92;;;21.05;;
34405;SDS011;20658;45.630;8.886;2023-02-11T05:42:40;39.28;;;20.77;;
34405;SDS011;20658;45.630;8.886;2023-02-11T05:45:14;41.33;;;19.45;;
34405;SDS011;20658;45.630;8.886;2023-02-11T05:47:47;43.38;;;19.58;;
34405;SDS011;20658;45.630;8.886;2023-02-11T05:50:21;36.95;;;18.88;;
34405;SDS011;20658;45.630;8.886;2023-02-11T05:52:55;37.78;;;19.15;;
34405;SDS011;20658;45.630;8.886;2023-02-11T05:55:30;37.17;;;19.42;;
34405;SDS011;20658;45.630;8.886;2023-02-11T05:58:03;49.90;;;25.83;;
34405;SDS011;20658;45.630;8.886;2023-02-11T06:00:38;203.43;;;98.65;;
34405;SDS011;20658;45.630;8.886;2023-02-11T06:03:11;136.32;;;71.07;;
34405;SDS011;20658;45.630;8.886;2023-02-11T06:05:44;65.10;;;34.58;;
34405;SDS011;20658;45.630;8.886;2023-02-11T06:08:18;160.18;;;87.60;;
34405;SDS011;20658;45.630;8.886;2023-02-11T06:10:52;51.45;;;27.20;;
34405;SDS011;20658;45.630;8.886;2023-02-11T06:13:26;41.95;;;21.85;;
34405;SDS011;20658;45.630;8.886;2023-02-11T06:15:59;37.95;;;19.85;;
34405;SDS011;20658;45.630;8.886;2023-02-11T06:18:33;38.92;;;20.55;;
34405;SDS011;20658;45.630;8.886;2023-02-11T06:21:07;40.13;;;20.30;;
34405;SDS011;20658;45.630;8.886;2023-02-11T06:23:42;36.70;;;19.10;;
34405;SDS011;20658;45.630;8.886;2023-02-11T06:26:18;35.55;;;18.50;;
34405;SDS011;20658;45.630;8.886;2023-02-11T06:28:53;36.60;;;18.45;;
34405;SDS011;20658;45.630;8.886;2023-02-11T06:31:27;38.60;;;18.02;;
34405;SDS011;20658;45.630;8.886;2023-02-11T06:34:00;36.58;;;18.02;;
34405;SDS011;20658;45.630;8.886;2023-02-11T06:36:34;37.08;;;18.42;;
34405;SDS011;20658;45.630;8.886;2023-02-11T06:39:08;37.13;;;18.30;;
34405;SDS011;20658;45.630;8.886;2023-02-11T06:42:01;39.40;;;18.95;;
34405;SDS011;20658;45.630;8.886;2023-02-11T06:44:50;37.92;;;18.52;;
34405;SDS011;20658;45.630;8.886;2023-02-11T06:47:23;42.05;;;19.02;;
34405;SDS011;20658;45.630;8.886;2023-02-11T06:49:56;37.03;;;18.27;;
34405;SDS011;20658;45.630;8.886;2023-02-11T06:52:30;40.80;;;20.85;;
34405;SDS011;20658;45.630;8.886;2023-02-11T06:55:04;43.22;;;20.58;;
34405;SDS011;20658;45.630;8.886;2023-02-11T06:57:39;37.38;;;20.05;;
34405;SDS011;20658;45.630;8.886;2023-02-11T07:00:12;50.30;;;21.92;;
34405;SDS011;20658;45.630;8.886;2023-02-11T07:02:47;45.55;;;23.05;;
34405;SDS011;20658;45.630;8.886;2023-02-11T07:05:20;49.05;;;25.80;;
34405;SDS011;20658;45.630;8.886;2023-02-11T07:07:53;42.17;;;21.30;;
34405;SDS011;20658;45.630;8.886;2023-02-11T07:10:26;41.72;;;21.85;;
34405;SDS011;20658;45.630;8.886;2023-02-11T07:13:01;40.13;;;20.90;;
34405;SDS011;20658;45.630;8.886;2023-02-11T07:15:35;37.95;;;19.88;;
34405;SDS011;20658;45.630;8.886;2023-02-11T07:18:08;40.75;;;20.08;;
34405;SDS011;20658;45.630;8.886;2023-02-11T07:20:42;38.05;;;19.95;;
34405;SDS011;20658;45.630;8.886;2023-02-11T07:23:15;39.67;;;20.25;;
34405;SDS011;20658;45.630;8.886;2023-02-11T07:25:48;43.60;;;20.13;;
34405;SDS011;20658;45.630;8.886;2023-02-11T07:28:23;44.38;;;20.70;;
34405;SDS011;20658;45.630;8.886;2023-02-11T07:30:56;42.65;;;20.60;;
34405;SDS011;20658;45.630;8.886;2023-02-11T07:33:30;41.20;;;20.88;;
34405;SDS011;20658;45.630;8.886;2023-02-11T07:36:03;39.40;;;19.75;;
34405;SDS011;20658;45.630;8.886;2023-02-11T07:38:39;44.35;;;20.95;;
34405;SDS011;20658;45.630;8.886;2023-02-11T07:41:13;43.85;;;22.77;;
34405;SDS011;20658;45.630;8.886;2023-02-11T07:43:49;36.90;;;21.25;;
34405;SDS011;20658;45.630;8.886;2023-02-11T07:46:23;54.75;;;25.38;;
34405;SDS011;20658;45.630;8.886;2023-02-11T07:48:58;42.65;;;22.30;;
34405;SDS011;20658;45.630;8.886;2023-02-11T07:51:32;44.85;;;23.75;;
34405;SDS011;20658;45.630;8.886;2023-02-11T07:54:05;43.35;;;24.25;;
34405;SDS011;20658;45.630;8.886;2023-02-11T07:56:39;40.17;;;22.00;;
34405;SDS011;20658;45.630;8.886;2023-02-11T07:59:13;39.30;;;22.10;;
34405;SDS011;20658;45.630;8.886;2023-02-11T08:01:47;38.03;;;19.98;;
34405;SDS011;20658;45.630;8.886;2023-02-11T08:04:21;41.58;;;20.98;;
34405;SDS011;20658;45.630;8.886;2023-02-11T08:06:54;41.45;;;21.02;;
34405;SDS011;20658;45.630;8.886;2023-02-11T08:09:29;38.75;;;20.95;;
34405;SDS011;20658;45.630;8.886;2023-02-11T08:12:02;38.58;;;20.95;;
34405;SDS011;20658;45.630;8.886;2023-02-11T08:14:37;38.33;;;20.63;;
34405;SDS011;20658;45.630;8.886;2023-02-11T08:17:11;38.38;;;19.50;;
34405;SDS011;20658;45.630;8.886;2023-02-11T08:19:44;41.53;;;19.88;;
34405;SDS011;20658;45.630;8.886;2023-02-11T08:22:18;42.40;;;22.02;;
34405;SDS011;20658;45.630;8.886;2023-02-11T08:24:51;40.13;;;21.88;;
34405;SDS011;20658;45.630;8.886;2023-02-11T08:27:24;42.08;;;20.77;;
34405;SDS011;20658;45.630;8.886;2023-02-11T08:30:01;40.72;;;20.63;;
34405;SDS011;20658;45.630;8.886;2023-02-11T08:32:35;42.30;;;21.80;;
34405;SDS011;20658;45.630;8.886;2023-02-11T08:35:09;36.80;;;19.70;;
34405;SDS011;20658;45.630;8.886;2023-02-11T08:37:43;40.65;;;21.98;;
34405;SDS011;20658;45.630;8.886;2023-02-11T08:40:16;39.72;;;22.33;;
34405;SDS011;20658;45.630;8.886;2023-02-11T08:42:50;40.90;;;23.25;;
34405;SDS011;20658;45.630;8.886;2023-02-11T08:45:25;47.13;;;21.67;;
34405;SDS011;20658;45.630;8.886;2023-02-11T08:47:59;46.70;;;22.10;;
34405;SDS011;20658;45.630;8.886;2023-02-11T08:50:32;44.33;;;23.15;;
34405;SDS011;20658;45.630;8.886;2023-02-11T08:53:09;44.80;;;22.33;;
34405;SDS011;20658;45.630;8.886;2023-02-11T08:55:46;39.67;;;21.95;;
34405;SDS011;20658;45.630;8.886;2023-02-11T08:58:21;50.17;;;19.90;;
34405;SDS011;20658;45.630;8.886;2023-02-11T09:00:55;38.45;;;20.00;;
34405;SDS011;20658;45.630;8.886;2023-02-11T09:03:29;38.65;;;21.20;;
34405;SDS011;20658;45.630;8.886;2023-02-11T09:06:03;37.67;;;20.40;;
34405;SDS011;20658;45.630;8.886;2023-02-11T09:08:39;44.58;;;21.77;;
34405;SDS011;20658;45.630;8.886;2023-02-11T09:11:14;37.17;;;20.70;;
34405;SDS011;20658;45.630;8.886;2023-02-11T09:13:48;41.20;;;20.90;;
34405;SDS011;20658;45.630;8.886;2023-02-11T09:16:23;35.78;;;17.55;;
34405;SDS011;20658;45.630;8.886;2023-02-11T09:18:59;37.25;;;19.13;;
34405;SDS011;20658;45.630;8.886;2023-02-11T09:21:35;37.15;;;20.55;;
34405;SDS011;20658;45.630;8.886;2023-02-11T09:24:09;36.53;;;19.33;;
34405;SDS011;20658;45.630;8.886;2023-02-11T09:26:43;36.65;;;18.83;;
34405;SDS011;20658;45.630;8.886;2023-02-11T09:29:16;31.10;;;16.13;;
34405;SDS011;20658;45.630;8.886;2023-02-11T09:31:51;25.83;;;13.77;;
34405;SDS011;20658;45.630;8.886;2023-02-11T09:34:24;35.08;;;16.45;;
34405;SDS011;20658;45.630;8.886;2023-02-11T09:36:58;35.22;;;18.05;;
34405;SDS011;20658;45.630;8.886;2023-02-11T09:39:31;34.30;;;16.92;;
34405;SDS011;20658;45.630;8.886;2023-02-11T09:45:17;37.53;;;18.23;;
34405;SDS011;20658;45.630;8.886;2023-02-11T09:47:56;35.60;;;18.92;;
34405;SDS011;20658;45.630;8.886;2023-02-11T09:50:33;33.70;;;18.13;;
34405;SDS011;20658;45.630;8.886;2023-02-11T09:53:09;42.30;;;19.38;;
34405;SDS011;20658;45.630;8.886;2023-02-11T09:55:48;38.95;;;22.15;;
34405;SDS011;20658;45.630;8.886;2023-02-11T09:58:27;37.15;;;20.10;;
34405;SDS011;20658;45.630;8.886;2023-02-11T10:01:04;37.22;;;27.85;;
34405;SDS011;20658;45.630;8.886;2023-02-11T10:03:55;30.75;;;17.20;;
34405;SDS011;20658;45.630;8.886;2023-02-11T10:06:40;36.58;;;17.27;;
34405;SDS011;20658;45.630;8.886;2023-02-11T10:12:31;31.38;;;16.33;;
34405;SDS011;20658;45.630;8.886;2023-02-11T10:15:19;31.80;;;16.80;;
34405;SDS011;20658;45.630;8.886;2023-02-11T10:18:06;34.88;;;18.05;;
34405;SDS011;20658;45.630;8.886;2023-02-11T10:21:00;33.45;;;19.88;;
34405;SDS011;20658;45.630;8.886;2023-02-11T10:23:47;30.95;;;17.67;;
34405;SDS011;20658;45.630;8.886;2023-02-11T10:26:25;26.92;;;15.82;;
34405;SDS011;20658;45.630;8.886;2023-02-11T10:29:04;54.33;;;36.47;;
34405;SDS011;20658;45.630;8.886;2023-02-11T10:31:53;32.10;;;16.33;;
34405;SDS011;20658;45.630;8.886;2023-02-11T10:34:27;51.97;;;34.13;;
34405;SDS011;20658;45.630;8.886;2023-02-11T10:37:01;34.47;;;18.80;;
34405;SDS011;20658;45.630;8.886;2023-02-11T10:39:37;32.13;;;16.85;;
34405;SDS011;20658;45.630;8.886;2023-02-11T10:42:12;31.60;;;17.00;;
34405;SDS011;20658;45.630;8.886;2023-02-11T10:44:48;29.80;;;16.35;;
34405;SDS011;20658;45.630;8.886;2023-02-11T10:47:30;30.25;;;16.27;;
34405;SDS011;20658;45.630;8.886;2023-02-11T10:50:16;29.67;;;16.77;;
34405;SDS011;20658;45.630;8.886;2023-02-11T10:53:08;29.98;;;17.00;;
34405;SDS011;20658;45.630;8.886;2023-02-11T10:55:50;29.30;;;15.85;;
34405;SDS011;20658;45.630;8.886;2023-02-11T10:58:27;33.20;;;17.05;;
34405;SDS011;20658;45.630;8.886;2023-02-11T11:01:03;30.67;;;16.52;;
34405;SDS011;20658;45.630;8.886;2023-02-11T11:03:37;29.77;;;16.98;;
34405;SDS011;20658;45.630;8.886;2023-02-11T11:06:27;30.40;;;16.10;;
34405;SDS011;20658;45.630;8.886;2023-02-11T11:09:04;28.05;;;16.23;;
34405;SDS011;20658;45.630;8.886;2023-02-11T11:11:37;38.50;;;18.63;;
34405;SDS011;20658;45.630;8.886;2023-02-11T11:14:24;35.67;;;19.05;;
34405;SDS011;20658;45.630;8.886;2023-02-11T11:16:59;31.45;;;18.35;;
34405;SDS011;20658;45.630;8.886;2023-02-11T11:19:33;34.47;;;19.75;;
34405;SDS011;20658;45.630;8.886;2023-02-11T11:22:11;30.98;;;17.88;;
34405;SDS011;20658;45.630;8.886;2023-02-11T11:24:54;31.02;;;19.05;;
34405;SDS011;20658;45.630;8.886;2023-02-11T11:27:31;31.23;;;17.48;;
34405;SDS011;20658;45.630;8.886;2023-02-11T11:30:05;29.35;;;17.55;;
34405;SDS011;20658;45.630;8.886;2023-02-11T11:32:47;27.00;;;15.48;;
34405;SDS011;20658;45.630;8.886;2023-02-11T11:35:23;30.23;;;16.80;;
34405;SDS011;20658;45.630;8.886;2023-02-11T11:37:59;30.35;;;16.45;;
34405;SDS011;20658;45.630;8.886;2023-02-11T11:40:37;29.52;;;16.25;;
34405;SDS011;20658;45.630;8.886;2023-02-11T11:43:16;30.38;;;16.35;;
34405;SDS011;20658;45.630;8.886;2023-02-11T11:45:51;31.10;;;16.50;;
34405;SDS011;20658;45.630;8.886;2023-02-11T11:48:27;28.10;;;15.55;;
34405;SDS011;20658;45.630;8.886;2023-02-11T11:51:05;27.58;;;16.20;;
34405;SDS011;20658;45.630;8.886;2023-02-11T11:53:42;28.75;;;16.38;;
34405;SDS011;20658;45.630;8.886;2023-02-11T11:56:25;26.83;;;16.90;;
34405;SDS011;20658;45.630;8.886;2023-02-11T11:59:01;26.27;;;16.27;;
34405;SDS011;20658;45.630;8.886;2023-02-11T12:01:44;30.45;;;16.70;;
34405;SDS011;20658;45.630;8.886;2023-02-11T12:04:39;31.00;;;17.40;;
34405;SDS011;20658;45.630;8.886;2023-02-11T12:07:37;29.27;;;18.85;;
34405;SDS011;20658;45.630;8.886;2023-02-11T12:10:37;29.65;;;17.17;;
34405;SDS011;20658;45.630;8.886;2023-02-11T12:13:33;33.63;;;17.05;;
34405;SDS011;20658;45.630;8.886;2023-02-11T12:16:26;37.85;;;20.60;;
34405;SDS011;20658;45.630;8.886;2023-02-11T12:19:23;32.17;;;18.95;;
34405;SDS011;20658;45.630;8.886;2023-02-11T12:22:32;33.00;;;17.90;;
34405;SDS011;20658;45.630;8.886;2023-02-11T12:25:18;39.85;;;19.48;;
34405;SDS011;20658;45.630;8.886;2023-02-11T12:28:02;31.25;;;17.40;;
34405;SDS011;20658;45.630;8.886;2023-02-11T12:30:55;31.17;;;16.80;;
34405;SDS011;20658;45.630;8.886;2023-02-11T12:37:17;32.05;;;19.05;;
34405;SDS011;20658;45.630;8.886;2023-02-11T12:40:02;36.95;;;21.13;;
34405;SDS011;20658;45.630;8.886;2023-02-11T12:42:54;37.50;;;21.40;;
34405;SDS011;20658;45.630;8.886;2023-02-11T12:45:56;30.60;;;17.70;;
34405;SDS011;20658;45.630;8.886;2023-02-11T12:49:02;30.42;;;15.35;;
34405;SDS011;20658;45.630;8.886;2023-02-11T12:52:07;31.55;;;18.50;;
34405;SDS011;20658;45.630;8.886;2023-02-11T12:54:53;30.92;;;16.83;;
34405;SDS011;20658;45.630;8.886;2023-02-11T12:57:33;26.88;;;15.68;;
34405;SDS011;20658;45.630;8.886;2023-02-11T13:00:12;30.27;;;17.17;;
34405;SDS011;20658;45.630;8.886;2023-02-11T13:02:55;31.25;;;17.80;;
34405;SDS011;20658;45.630;8.886;2023-02-11T13:05:38;27.83;;;16.08;;
34405;SDS011;20658;45.630;8.886;2023-02-11T13:08:15;28.15;;;16.05;;
34405;SDS011;20658;45.630;8.886;2023-02-11T13:10:56;34.33;;;17.08;;
34405;SDS011;20658;45.630;8.886;2023-02-11T13:13:34;33.33;;;19.65;;
34405;SDS011;20658;45.630;8.886;2023-02-11T13:16:19;32.63;;;18.98;;
34405;SDS011;20658;45.630;8.886;2023-02-11T13:19:09;32.60;;;19.35;;
34405;SDS011;20658;45.630;8.886;2023-02-11T13:21:53;31.08;;;19.05;;
34405;SDS011;20658;45.630;8.886;2023-02-11T13:24:39;32.70;;;19.52;;
34405;SDS011;20658;45.630;8.886;2023-02-11T13:27:19;41.47;;;18.70;;
34405;SDS011;20658;45.630;8.886;2023-02-11T13:30:17;30.25;;;18.33;;
34405;SDS011;20658;45.630;8.886;2023-02-11T13:39:02;35.15;;;19.42;;
34405;SDS011;20658;45.630;8.886;2023-02-11T13:41:38;31.35;;;18.42;;
34405;SDS011;20658;45.630;8.886;2023-02-11T13:44:22;29.60;;;17.42;;
34405;SDS011;20658;45.630;8.886;2023-02-11T13:46:59;30.88;;;18.23;;
34405;SDS011;20658;45.630;8.886;2023-02-11T13:49:35;29.95;;;18.52;;
34405;SDS011;20658;45.630;8.886;2023-02-11T13:52:17;30.58;;;18.45;;
34405;SDS011;20658;45.630;8.886;2023-02-11T13:54:56;32.42;;;19.00;;
34405;SDS011;20658;45.630;8.886;2023-02-11T13:57:41;33.08;;;18.95;;
34405;SDS011;20658;45.630;8.886;2023-02-11T14:03:26;30.35;;;16.08;;
34405;SDS011;20658;45.630;8.886;2023-02-11T14:06:21;28.83;;;16.40;;
34405;SDS011;20658;45.630;8.886;2023-02-11T14:12:30;28.93;;;16.90;;
34405;SDS011;20658;45.630;8.886;2023-02-11T14:15:19;27.63;;;15.27;;
34405;SDS011;20658;45.630;8.886;2023-02-11T14:17:58;28.20;;;15.87;;
34405;SDS011;20658;45.630;8.886;2023-02-11T14:20:35;25.45;;;15.27;;
34405;SDS011;20658;45.630;8.886;2023-02-11T14:23:21;27.30;;;15.05;;
34405;SDS011;20658;45.630;8.886;2023-02-11T14:29:07;25.85;;;14.27;;
34405;SDS011;20658;45.630;8.886;2023-02-11T14:31:48;28.73;;;16.60;;
34405;SDS011;20658;45.630;8.886;2023-02-11T14:34:37;29.90;;;17.83;;
34405;SDS011;20658;45.630;8.886;2023-02-11T14:37:27;24.38;;;14.20;;
34405;SDS011;20658;45.630;8.886;2023-02-11T14:40:20;24.92;;;13.45;;
34405;SDS011;20658;45.630;8.886;2023-02-11T14:43:04;27.35;;;14.48;;
34405;SDS011;20658;45.630;8.886;2023-02-11T14:45:44;31.00;;;17.33;;
34405;SDS011;20658;45.630;8.886;2023-02-11T14:48:25;28.85;;;16.48;;
34405;SDS011;20658;45.630;8.886;2023-02-11T14:51:04;30.88;;;19.42;;
34405;SDS011;20658;45.630;8.886;2023-02-11T14:53:42;27.90;;;16.48;;
34405;SDS011;20658;45.630;8.886;2023-02-11T14:56:20;28.58;;;17.42;;
34405;SDS011;20658;45.630;8.886;2023-02-11T14:58:57;27.80;;;16.98;;
34405;SDS011;20658;45.630;8.886;2023-02-11T15:01:33;27.15;;;16.88;;
34405;SDS011;20658;45.630;8.886;2023-02-11T15:04:21;30.38;;;18.65;;
34405;SDS011;20658;45.630;8.886;2023-02-11T15:06:58;29.85;;;18.60;;
34405;SDS011;20658;45.630;8.886;2023-02-11T15:09:37;32.42;;;19.05;;
34405;SDS011;20658;45.630;8.886;2023-02-11T15:12:15;32.03;;;17.80;;
34405;SDS011;20658;45.630;8.886;2023-02-11T15:14:56;29.60;;;17.60;;
34405;SDS011;20658;45.630;8.886;2023-02-11T15:17:31;30.38;;;16.90;;
34405;SDS011;20658;45.630;8.886;2023-02-11T15:20:05;32.88;;;18.52;;
34405;SDS011;20658;45.630;8.886;2023-02-11T15:22:50;34.25;;;19.77;;
34405;SDS011;20658;45.630;8.886;2023-02-11T15:25:28;32.35;;;18.75;;
34405;SDS011;20658;45.630;8.886;2023-02-11T15:28:09;30.13;;;18.77;;
34405;SDS011;20658;45.630;8.886;2023-02-11T15:30:58;33.25;;;20.08;;
34405;SDS011;20658;45.630;8.886;2023-02-11T15:33:33;34.42;;;22.13;;
34405;SDS011;20658;45.630;8.886;2023-02-11T15:36:08;49.15;;;33.45;;
34405;SDS011;20658;45.630;8.886;2023-02-11T15:38:42;31.88;;;18.70;;
34405;SDS011;20658;45.630;8.886;2023-02-11T15:41:34;32.38;;;19.13;;
34405;SDS011;20658;45.630;8.886;2023-02-11T15:47:01;31.17;;;18.33;;
34405;SDS011;20658;45.630;8.886;2023-02-11T15:49:42;31.67;;;19.48;;
34405;SDS011;20658;45.630;8.886;2023-02-11T15:52:21;29.92;;;17.92;;
34405;SDS011;20658;45.630;8.886;2023-02-11T15:54:58;32.75;;;19.13;;
34405;SDS011;20658;45.630;8.886;2023-02-11T15:57:33;34.00;;;20.48;;
34405;SDS011;20658;45.630;8.886;2023-02-11T16:00:13;30.05;;;18.35;;
34405;SDS011;20658;45.630;8.886;2023-02-11T16:02:50;31.02;;;19.05;;
34405;SDS011;20658;45.630;8.886;2023-02-11T16:05:28;32.80;;;19.52;;
34405;SDS011;20658;45.630;8.886;2023-02-11T16:08:16;33.97;;;19.33;;
34405;SDS011;20658;45.630;8.886;2023-02-11T16:10:55;30.67;;;17.90;;